Time;durP1;ratioP1;P1;durP2;ratioP2;P2;SDS_P1;SDS_P2;PMS_P1;PMS_P2;Temp;Humidity;BMP_temperature;BMP_pressure;BME280_temperature;BME280_humidity;BME280_pressure;Samples;Min_cycle;Max_cycle;Signal;HPM_P1;HPM_P2
2022/06/26 00:02:21;;;;;;;6.60;6.10;;;16.10;99.90;;;;;;8363140;28;20331;-69
2022/06/26 00:06:22;;;;;;;7.77;6.97;;;16.10;99.90;;;;;;8371173;28;20268;-68
2022/06/26 00:10:22;;;;;;;8.20;7.50;;;16.00;99.90;;;;;;8367154;28;20452;-69
2022/06/26 00:14:24;;;;;;;7.50;6.80;;;15.90;99.90;;;;;;8370338;28;20214;-69
2022/06/26 00:18:25;;;;;;;8.30;7.57;;;15.90;99.90;;;;;;8373333;28;20182;-69
2022/06/26 00:22:26;;;;;;;7.83;7.03;;;15.90;99.90;;;;;;8367720;28;20221;-68
2022/06/26 00:26:27;;;;;;;7.40;6.70;;;15.80;99.90;;;;;;8364227;28;20272;-67
2022/06/26 00:30:28;;;;;;;7.00;6.40;;;15.80;99.90;;;;;;8368588;28;20204;-69
2022/06/26 00:34:29;;;;;;;8.23;7.47;;;15.70;99.90;;;;;;8376377;28;20177;-67
2022/06/26 00:38:30;;;;;;;7.33;6.73;;;15.60;99.90;;;;;;8381887;28;20212;-69
2022/06/26 00:42:31;;;;;;;7.13;6.53;;;15.60;99.90;;;;;;8367144;28;20250;-69
2022/06/26 00:46:31;;;;;;;8.10;7.50;;;15.50;99.90;;;;;;8372999;28;20636;-69
2022/06/26 00:50:33;;;;;;;7.60;6.90;;;15.50;99.90;;;;;;8369631;28;20182;-69
2022/06/26 00:54:34;;;;;;;8.90;8.00;;;15.50;99.90;;;;;;8365797;28;20189;-69
2022/06/26 00:58:34;;;;;;;11.70;10.60;;;15.50;99.90;;;;;;8369443;28;20190;-69
2022/06/26 01:02:35;;;;;;;10.40;9.50;;;15.40;99.90;;;;;;8377424;28;20283;-68
2022/06/26 01:06:36;;;;;;;10.27;8.97;;;15.40;99.90;;;;;;8375319;28;20491;-67
2022/06/26 01:10:38;;;;;;;8.03;7.33;;;15.40;99.90;;;;;;8376202;28;20174;-68
2022/06/26 01:14:39;;;;;;;9.47;8.67;;;15.40;99.90;;;;;;8378066;28;20212;-70
2022/06/26 01:18:40;;;;;;;10.80;9.53;;;15.30;99.90;;;;;;8370742;28;20192;-68
2022/06/26 01:22:41;;;;;;;9.07;8.27;;;15.30;99.90;;;;;;8369852;28;20312;-69
2022/06/26 01:26:42;;;;;;;11.17;8.80;;;15.20;99.90;;;;;;8371161;28;20188;-67
2022/06/26 01:30:44;;;;;;;9.50;8.53;;;15.20;99.90;;;;;;8366893;28;20232;-71
2022/06/26 01:34:45;;;;;;;8.60;7.80;;;15.10;99.90;;;;;;8374972;28;20240;-69
2022/06/26 01:38:46;;;;;;;9.00;8.20;;;15.00;99.90;;;;;;8376833;28;20297;-68
2022/06/26 01:42:47;;;;;;;8.87;8.07;;;15.00;99.90;;;;;;8369186;28;20217;-68
2022/06/26 01:46:48;;;;;;;9.63;8.73;;;14.90;99.90;;;;;;8364673;28;20196;-68
2022/06/26 01:50:48;;;;;;;9.70;8.90;;;14.90;99.90;;;;;;8372218;28;20188;-68
2022/06/26 01:54:49;;;;;;;9.97;9.10;;;14.90;99.90;;;;;;8374248;28;20239;-67
2022/06/26 01:58:50;;;;;;;9.57;8.67;;;14.90;99.90;;;;;;8374590;28;20185;-68
2022/06/26 02:02:51;;;;;;;9.63;8.70;;;14.80;99.90;;;;;;8368206;28;20226;-68
2022/06/26 02:06:52;;;;;;;8.73;7.93;;;14.80;99.90;;;;;;8363862;28;20244;-68
2022/06/26 02:15:12;;;;;;;10.10;9.20;;;14.80;99.90;;;;;;8374036;28;20311;-68
2022/06/26 02:19:12;;;;;;;10.23;9.33;;;14.80;99.90;;;;;;8371325;28;20497;-68
2022/06/26 02:23:14;;;;;;;11.20;10.17;;;14.80;99.90;;;;;;8371393;28;20283;-70
2022/06/26 02:27:15;;;;;;;12.70;11.50;;;14.90;99.90;;;;;;8373762;28;20201;-68
2022/06/26 02:31:16;;;;;;;12.60;11.40;;;15.00;99.90;;;;;;8369652;28;20185;-68
2022/06/26 02:35:16;;;;;;;12.27;11.17;;;15.20;99.90;;;;;;8369899;28;20186;-69
2022/06/26 02:39:20;;;;;;;12.60;11.40;;;15.20;99.90;;;;;;8371226;28;20185;-67
2022/06/26 02:43:24;;;;;;;12.73;11.53;;;15.20;99.90;;;;;;8366579;28;20212;-67
2022/06/26 02:47:26;;;;;;;12.00;10.90;;;15.20;99.90;;;;;;8368331;28;20177;-69
2022/06/26 02:51:26;;;;;;;11.63;10.60;;;15.30;99.90;;;;;;8367579;28;20186;-69
2022/06/26 02:55:27;;;;;;;11.40;10.40;;;15.30;99.90;;;;;;8374818;28;20255;-72
2022/06/26 02:59:28;;;;;;;11.67;10.57;;;15.30;99.90;;;;;;8372737;28;20188;-69
2022/06/26 03:03:29;;;;;;;12.47;11.27;;;15.40;99.90;;;;;;8380446;28;20271;-72
2022/06/26 03:07:29;;;;;;;11.90;10.83;;;15.50;99.90;;;;;;8375312;28;20245;-69
2022/06/26 03:11:30;;;;;;;12.23;11.13;;;15.60;99.90;;;;;;8371078;28;20196;-68
2022/06/26 03:15:31;;;;;;;11.40;10.30;;;15.70;99.90;;;;;;8377887;28;20185;-68
2022/06/26 03:19:32;;;;;;;13.73;12.40;;;15.90;99.90;;;;;;8365016;28;20212;-69
2022/06/26 03:27:52;;;;;;;11.77;10.77;;;16.90;99.90;;;;;;8377237;28;20392;-69
2022/06/26 03:31:53;;;;;;;12.03;10.93;;;17.50;99.90;;;;;;8378247;28;20189;-71
2022/06/26 03:35:54;;;;;;;12.23;11.13;;;18.10;99.90;;;;;;8381073;28;20223;-71
2022/06/26 03:39:55;;;;;;;13.80;12.60;;;18.70;99.90;;;;;;8368256;28;20271;-71
2022/06/26 03:43:55;;;;;;;9.90;9.00;;;19.40;99.90;;;;;;8367660;28;20217;-69
2022/06/26 03:47:56;;;;;;;8.70;7.90;;;20.30;99.90;;;;;;8369212;28;20340;-69
2022/06/26 03:51:57;;;;;;;8.93;8.17;;;21.00;99.90;;;;;;8369352;28;20181;-70
2022/06/26 03:55:58;;;;;;;9.93;7.33;;;21.70;99.90;;;;;;8371726;28;20305;-72
2022/06/26 03:59:58;;;;;;;7.97;7.27;;;22.30;1.00;;;;;;8375707;28;20181;-69
2022/06/26 04:03:59;;;;;;;10.97;8.53;;;22.80;99.90;;;;;;8369471;28;20342;-72
2022/06/26 04:08:01;;;;;;;10.07;9.07;;;23.40;1.00;;;;;;8375167;28;20176;-72
2022/06/26 04:12:02;;;;;;;8.43;7.57;;;23.70;1.00;;;;;;8374552;28;20193;-72
2022/06/26 04:16:03;;;;;;;8.70;7.97;;;23.90;99.90;;;;;;8375922;28;20194;-71
2022/06/26 04:20:04;;;;;;;10.93;9.83;;;24.30;99.90;;;;;;8377214;28;20273;-72
2022/06/26 04:24:05;;;;;;;8.70;7.70;;;24.40;33.80;;;;;;8380693;28;20212;-71
2022/06/26 04:28:07;;;;;;;10.43;9.53;;;24.60;99.90;;;;;;8380794;28;20205;-69
2022/06/26 04:32:08;;;;;;;10.43;7.87;;;25.00;2.00;;;;;;8379383;28;20185;-68
2022/06/26 04:36:09;;;;;;;9.00;8.10;;;25.10;99.90;;;;;;8376648;28;20181;-71
2022/06/26 04:40:11;;;;;;;9.43;8.65;;;25.40;1.00;;;;;;8373616;28;20269;-69
2022/06/26 04:44:12;;;;;;;10.20;9.25;;;25.70;1.00;;;;;;8380056;28;20205;-69
2022/06/26 04:48:13;;;;;;;9.07;8.25;;;25.60;99.90;;;;;;8373158;28;20184;-73
2022/06/26 04:52:15;;;;;;;9.07;8.32;;;25.50;1.00;;;;;;8378319;28;20186;-71
2022/06/26 04:56:15;;;;;;;11.02;8.60;;;25.90;99.90;;;;;;8373050;28;20181;-73
2022/06/26 05:00:16;;;;;;;9.45;8.43;;;25.80;99.90;;;;;;8377876;28;20221;-68
2022/06/26 05:04:17;;;;;;;8.90;8.02;;;25.80;99.90;;;;;;8376207;28;20276;-70
2022/06/26 05:08:18;;;;;;;7.65;6.93;;;26.10;99.90;;;;;;8378231;28;20178;-70
2022/06/26 05:12:19;;;;;;;9.30;7.50;;;26.30;99.90;;;;;;8375417;28;20213;-72
2022/06/26 05:16:20;;;;;;;9.85;9.02;;;26.20;99.90;;;;;;8377243;28;20178;-72
2022/06/26 05:20:20;;;;;;;8.27;7.53;;;25.40;88.10;;;;;;8374585;28;20248;-67
2022/06/26 05:24:21;;;;;;;9.95;7.78;;;24.80;99.90;;;;;;8377182;28;20248;-68
2022/06/26 05:28:22;;;;;;;9.88;8.98;;;24.30;99.90;;;;;;8369996;28;20229;-72
2022/06/26 05:32:23;;;;;;;9.30;8.50;;;23.90;99.90;;;;;;8372801;28;20182;-67
2022/06/26 05:36:23;;;;;;;8.33;7.57;;;23.80;1.00;;;;;;8375999;28;20184;-71
2022/06/26 05:40:24;;;;;;;9.53;8.23;;;23.80;99.90;;;;;;8377364;28;20182;-72
2022/06/26 05:44:25;;;;;;;10.30;8.90;;;23.90;69.50;;;;;;8374494;28;20202;-71
2022/06/26 05:48:26;;;;;;;10.53;9.43;;;23.90;1.00;;;;;;8377617;28;20244;-66
2022/06/26 05:52:27;;;;;;;10.77;9.13;;;23.70;16.10;;;;;;8372879;28;20181;-68
2022/06/26 05:56:28;;;;;;;10.23;9.17;;;23.70;6.60;;;;;;8371554;28;20185;-72
2022/06/26 06:00:28;;;;;;;10.63;8.83;;;23.80;1.00;;;;;;8377376;28;20196;-70
2022/06/26 06:04:29;;;;;;;7.57;6.87;;;23.90;99.90;;;;;;8371812;28;20216;-70
2022/06/26 06:08:30;;;;;;;10.27;9.10;;;24.10;1.00;;;;;;8375634;28;20182;-71
2022/06/26 06:12:31;;;;;;;9.40;8.50;;;24.40;1.00;;;;;;8374387;28;20200;-72
2022/06/26 06:16:32;;;;;;;11.20;8.43;;;24.30;99.90;;;;;;8374964;28;20380;-66
2022/06/26 06:20:33;;;;;;;9.20;8.30;;;24.50;99.90;;;;;;8375326;28;20184;-70
2022/06/26 06:24:34;;;;;;;10.47;7.77;;;24.50;99.90;;;;;;8369533;28;20211;-70
2022/06/26 06:28:35;;;;;;;9.63;8.83;;;24.60;1.00;;;;;;8373972;28;20217;-70
2022/06/26 06:32:36;;;;;;;8.77;7.97;;;24.60;99.90;;;;;;8375782;28;20190;-69
2022/06/26 06:36:37;;;;;;;9.90;8.73;;;24.70;99.90;;;;;;8379939;28;20193;-72
2022/06/26 06:40:37;;;;;;;9.30;8.30;;;24.80;99.90;;;;;;8382148;28;20182;-72
2022/06/26 06:44:39;;;;;;;8.23;7.47;;;25.00;1.00;;;;;;8376980;28;20208;-70
2022/06/26 06:48:39;;;;;;;8.47;7.57;;;25.10;99.90;;;;;;8367935;28;20181;-72
2022/06/26 06:52:40;;;;;;;7.37;6.63;;;25.00;99.90;;;;;;8376114;28;20186;-68
2022/06/26 06:56:41;;;;;;;9.33;8.53;;;25.10;99.90;;;;;;8370662;28;20193;-64
2022/06/26 07:00:42;;;;;;;8.93;8.13;;;25.30;99.90;;;;;;8372408;28;20185;-66
2022/06/26 07:04:42;;;;;;;8.37;7.57;;;25.50;99.90;;;;;;8367120;28;20529;-62
2022/06/26 07:08:43;;;;;;;8.93;7.73;;;25.70;99.90;;;;;;8365565;28;20259;-62
2022/06/26 07:12:52;;;;;;;7.87;7.27;;;25.80;68.90;;;;;;8375303;28;20218;-67
2022/06/26 07:16:53;;;;;;;8.63;7.75;;;26.00;1.00;;;;;;8367416;28;20193;-65
2022/06/26 07:20:54;;;;;;;10.13;8.10;;;26.00;1.00;;;;;;8364703;28;20389;-67
2022/06/26 07:24:55;;;;;;;9.65;8.85;;;26.10;91.90;;;;;;8374849;28;20219;-68
2022/06/26 07:28:55;;;;;;;7.70;7.00;;;26.20;1.00;;;;;;8371711;28;20200;-64
2022/06/26 07:32:56;;;;;;;8.77;7.97;;;26.30;99.90;;;;;;8368434;28;20188;-66
2022/06/26 07:36:57;;;;;;;9.25;8.40;;;26.40;1.00;;;;;;8365228;28;20181;-64
2022/06/26 07:40:58;;;;;;;7.22;6.32;;;26.60;99.90;;;;;;8370788;28;20181;-66
2022/06/26 07:44:59;;;;;;;7.07;6.13;;;26.60;99.90;;;;;;8371569;28;20177;-66
2022/06/26 07:49:00;;;;;;;7.63;6.75;;;26.90;62.60;;;;;;8374363;28;20180;-71
2022/06/26 07:53:01;;;;;;;6.25;5.78;;;27.20;1.00;;;;;;8378594;28;20220;-70
2022/06/26 07:57:02;;;;;;;6.43;5.40;;;27.20;1.00;;;;;;8376647;28;20181;-72
2022/06/26 08:01:03;;;;;;;4.75;4.35;;;27.00;1.00;;;;;;8370933;28;20181;-67
2022/06/26 08:05:04;;;;;;;4.05;3.63;;;26.90;1.00;;;;;;8376482;28;20327;-72
2022/06/26 08:09:05;;;;;;;6.25;5.05;;;27.10;99.90;;;;;;8383831;28;20188;-71
2022/06/26 08:13:06;;;;;;;4.88;4.47;;;27.20;1.00;;;;;;8375610;28;20200;-70
2022/06/26 08:17:08;;;;;;;5.68;5.13;;;27.40;99.90;;;;;;8379308;28;20182;-67
2022/06/26 08:25:28;;;;;;;5.72;5.05;;;27.90;99.90;;;;;;8373766;28;20644;-68
2022/06/26 08:29:29;;;;;;;6.90;5.20;;;28.10;99.90;;;;;;8379084;28;20208;-67
2022/06/26 08:33:30;;;;;;;7.25;4.72;;;28.40;99.90;;;;;;8375615;28;20186;-67
2022/06/26 08:37:31;;;;;;;5.82;5.22;;;28.50;99.90;;;;;;8376599;28;20181;-65
2022/06/26 08:41:38;;;;;;;5.80;5.30;;;28.60;99.90;;;;;;8373498;28;20296;-68
2022/06/26 08:45:41;;;;;;;5.45;4.95;;;28.60;99.90;;;;;;8380811;28;20207;-66
2022/06/26 08:49:43;;;;;;;7.22;5.78;;;28.70;99.90;;;;;;8372022;28;20169;-65
2022/06/26 08:53:45;;;;;;;5.35;4.85;;;28.90;99.90;;;;;;8372596;28;20182;-68
2022/06/26 08:57:48;;;;;;;5.20;4.65;;;29.00;99.90;;;;;;8379358;28;20181;-67
2022/06/26 09:01:49;;;;;;;5.25;4.72;;;29.10;99.90;;;;;;8372777;28;20240;-70
2022/06/26 09:05:50;;;;;;;6.00;4.78;;;29.30;99.90;;;;;;8376149;28;20193;-67
2022/06/26 09:09:51;;;;;;;4.93;4.43;;;29.20;99.90;;;;;;8373437;28;20182;-68
2022/06/26 09:13:53;;;;;;;4.75;3.70;;;29.40;99.90;;;;;;8375594;28;20189;-66
2022/06/26 09:18:02;;;;;;;4.22;3.83;;;29.50;99.90;;;;;;8372886;28;20189;-67
2022/06/26 09:22:07;;;;;;;4.18;3.63;;;29.70;99.90;;;;;;8370868;28;20209;-71
2022/06/26 09:26:08;;;;;;;5.25;4.75;;;29.80;87.70;;;;;;8372640;28;20174;-69
2022/06/26 09:30:09;;;;;;;4.20;3.60;;;29.80;99.90;;;;;;8371966;28;20522;-68
2022/06/26 09:34:27;;;;;;;4.82;4.10;;;30.10;56.30;;;;;;8368073;28;20212;-68
2022/06/26 09:38:35;;;;;;;6.68;3.88;;;30.10;68.20;;;;;;8369340;28;20241;-68
2022/06/26 09:42:36;;;;;;;4.20;3.72;;;30.40;43.30;;;;;;8375380;28;20308;-68
2022/06/26 09:46:37;;;;;;;5.72;3.97;;;30.60;40.40;;;;;;8376843;28;20238;-68
2022/06/26 09:50:38;;;;;;;5.95;5.13;;;30.90;1.00;;;;;;8369099;28;20185;-65
2022/06/26 09:54:39;;;;;;;4.15;3.75;;;31.10;1.00;;;;;;8372246;28;20307;-68
2022/06/26 09:58:41;;;;;;;4.40;3.72;;;31.20;1.00;;;;;;8367709;28;20219;-66
2022/06/26 10:07:05;;;;;;;4.72;3.63;;;30.90;1.00;;;;;;8367859;28;20311;-70
2022/06/26 10:11:07;;;;;;;3.78;3.25;;;31.10;1.00;;;;;;8370824;28;20264;-66
2022/06/26 10:15:10;;;;;;;4.45;3.50;;;31.10;1.00;;;;;;8369655;28;20179;-67
2022/06/26 10:19:38;;;;;;;3.45;3.10;;;31.60;1.00;;;;;;8372010;28;20173;-66
2022/06/26 10:23:41;;;;;;;5.05;3.83;;;32.40;1.00;;;;;;8374168;28;20206;-68
2022/06/26 10:27:42;;;;;;;3.67;2.72;;;33.00;1.00;;;;;;8367128;28;20189;-67
2022/06/26 10:31:52;;;;;;;3.63;3.33;;;33.50;1.00;;;;;;8371740;28;20192;-66
2022/06/26 10:35:54;;;;;;;4.20;2.90;;;33.30;1.00;;;;;;8372605;28;20492;-62
2022/06/26 10:39:55;;;;;;;3.70;3.10;;;33.40;1.00;;;;;;8366700;28;20185;-65
2022/06/26 10:44:05;;;;;;;3.83;2.70;;;33.50;1.00;;;;;;8370589;28;20211;-66
2022/06/26 10:48:20;;;;;;;3.25;2.95;;;33.80;1.00;;;;;;8372967;28;20182;-67
2022/06/26 10:52:26;;;;;;;4.70;3.65;;;34.00;1.00;;;;;;8371291;28;20181;-64
2022/06/26 10:56:27;;;;;;;4.10;2.60;;;34.10;1.00;;;;;;8370956;28;20182;-66
2022/06/26 11:00:31;;;;;;;3.72;3.33;;;34.10;1.00;;;;;;8371770;28;20245;-68
2022/06/26 11:04:46;;;;;;;3.67;2.90;;;34.10;1.00;;;;;;8373990;28;20277;-63
2022/06/26 11:08:49;;;;;;;3.72;3.15;;;34.10;1.00;;;;;;8377069;28;20202;-67
2022/06/26 11:12:53;;;;;;;3.58;2.97;;;34.00;1.00;;;;;;8378433;28;20181;-62
2022/06/26 11:16:54;;;;;;;3.92;3.03;;;33.70;1.00;;;;;;8372641;28;20182;-67
2022/06/26 11:20:55;;;;;;;3.35;2.95;;;33.90;1.00;;;;;;8374107;28;20455;-68
2022/06/26 11:24:57;;;;;;;5.68;3.00;;;33.80;1.00;;;;;;8371083;28;20204;-67
2022/06/26 11:29:03;;;;;;;4.07;3.08;;;33.70;1.00;;;;;;8370482;28;20270;-68
2022/06/26 11:33:05;;;;;;;3.28;2.80;;;33.70;1.00;;;;;;8380206;28;20265;-70
2022/06/26 11:37:07;;;;;;;3.58;2.50;;;33.70;1.00;;;;;;8365362;28;20177;-65
2022/06/26 11:41:08;;;;;;;2.78;2.47;;;33.80;1.00;;;;;;8364773;28;20178;-67
2022/06/26 11:45:19;;;;;;;5.22;2.72;;;33.90;1.00;;;;;;8372390;28;20268;-70
2022/06/26 11:49:25;;;;;;;4.65;2.90;;;34.10;1.00;;;;;;8374481;28;20174;-65
2022/06/26 11:53:28;;;;;;;3.42;3.10;;;34.10;1.00;;;;;;8367866;28;20181;-69
2022/06/26 11:57:29;;;;;;;3.95;3.20;;;33.90;1.00;;;;;;8370552;28;20220;-66
2022/06/26 12:01:35;;;;;;;3.42;2.42;;;33.70;1.00;;;;;;8369194;28;20313;-64
2022/06/26 12:05:39;;;;;;;2.45;2.22;;;34.10;1.00;;;;;;8370911;28;20193;-67
2022/06/26 12:09:39;;;;;;;3.70;2.70;;;34.40;1.00;;;;;;8368680;28;20253;-66
2022/06/26 12:13:40;;;;;;;2.47;2.00;;;35.00;1.00;;;;;;8368716;28;20178;-67
2022/06/26 12:17:42;;;;;;;2.90;2.65;;;35.10;1.00;;;;;;8375445;28;20199;-66
2022/06/26 12:21:51;;;;;;;2.78;2.35;;;34.60;1.00;;;;;;8376210;28;20213;-69
2022/06/26 12:26:05;;;;;;;5.55;2.60;;;34.40;1.00;;;;;;8353699;28;20236;-67
2022/06/26 12:30:20;;;;;;;2.70;2.50;;;34.40;1.00;;;;;;8377654;28;20184;-67
2022/06/26 12:34:21;;;;;;;5.20;2.58;;;34.50;1.00;;;;;;8378831;28;20244;-63
2022/06/26 12:38:28;;;;;;;3.03;2.72;;;34.40;1.00;;;;;;8376882;28;20182;-65
2022/06/26 12:42:30;;;;;;;3.15;2.85;;;34.50;1.00;;;;;;8378779;28;20204;-64
2022/06/26 12:46:33;;;;;;;4.85;2.65;;;34.20;1.00;;;;;;8386087;28;20170;-68
2022/06/26 12:50:35;;;;;;;3.10;2.80;;;34.20;1.00;;;;;;8377691;28;20239;-63
2022/06/26 12:54:35;;;;;;;3.22;2.75;;;34.40;1.00;;;;;;8382064;28;20193;-64
2022/06/26 12:58:37;;;;;;;3.28;2.65;;;34.30;1.00;;;;;;8370502;28;20184;-66
2022/06/26 13:02:37;;;;;;;2.83;2.50;;;34.10;1.00;;;;;;8381830;28;20232;-67
2022/06/26 13:06:38;;;;;;;3.17;2.88;;;33.90;1.00;;;;;;8376828;28;20197;-68
2022/06/26 13:10:39;;;;;;;2.92;2.55;;;33.50;1.00;;;;;;8380633;28;20181;-67
2022/06/26 13:14:42;;;;;;;3.03;2.42;;;33.30;1.00;;;;;;8381833;28;20178;-65
2022/06/26 13:18:42;;;;;;;2.78;2.58;;;33.20;1.00;;;;;;8379123;28;20244;-65
2022/06/26 13:22:43;;;;;;;6.03;2.90;;;33.10;1.00;;;;;;8372041;28;20231;-68
2022/06/26 13:26:47;;;;;;;3.83;3.08;;;33.00;1.00;;;;;;8373764;28;20204;-67
2022/06/26 13:30:48;;;;;;;2.53;2.33;;;33.00;1.00;;;;;;8376151;28;20205;-66
2022/06/26 13:34:49;;;;;;;4.93;2.90;;;32.90;1.00;;;;;;8379572;28;20228;-69
2022/06/26 13:38:50;;;;;;;3.15;2.53;;;33.00;1.00;;;;;;8379388;28;20189;-69
2022/06/26 13:42:51;;;;;;;3.90;2.75;;;33.10;1.00;;;;;;8373029;28;20209;-67
2022/06/26 13:46:52;;;;;;;2.70;2.50;;;33.20;1.00;;;;;;8377975;28;20178;-66
2022/06/26 13:50:52;;;;;;;3.88;2.83;;;33.30;1.00;;;;;;8374237;28;20228;-66
2022/06/26 13:54:53;;;;;;;3.13;2.83;;;33.30;1.00;;;;;;8384366;28;20181;-64
2022/06/26 13:58:54;;;;;;;4.85;3.10;;;33.10;1.00;;;;;;8372576;28;20267;-66
2022/06/26 14:02:55;;;;;;;3.25;2.78;;;32.70;1.00;;;;;;8371399;28;20215;-66
2022/06/26 14:06:56;;;;;;;5.30;3.38;;;32.10;1.00;;;;;;8380222;28;20180;-66
2022/06/26 14:10:57;;;;;;;5.97;3.10;;;31.60;1.00;;;;;;8373848;28;20263;-67
2022/06/26 14:14:58;;;;;;;3.63;3.33;;;31.20;1.00;;;;;;8375971;28;20187;-66
2022/06/26 14:18:59;;;;;;;3.25;2.95;;;31.00;1.00;;;;;;8376311;28;20185;-66
2022/06/26 14:27:18;;;;;;;3.20;2.90;;;31.10;1.00;;;;;;8367914;28;20231;-69
2022/06/26 14:31:20;;;;;;;3.97;3.40;;;31.30;1.00;;;;;;8369436;28;20174;-68
2022/06/26 14:35:21;;;;;;;4.20;3.00;;;31.50;1.00;;;;;;8369872;28;20547;-66
2022/06/26 14:39:21;;;;;;;3.33;2.63;;;31.50;1.00;;;;;;8378528;28;20173;-67
2022/06/26 14:43:22;;;;;;;4.85;2.85;;;31.80;1.00;;;;;;8369389;28;20528;-68
2022/06/26 14:47:24;;;;;;;3.15;2.85;;;32.50;1.00;;;;;;8376465;28;20205;-69
2022/06/26 14:51:25;;;;;;;3.95;3.40;;;33.00;1.00;;;;;;8371086;28;20174;-68
2022/06/26 14:55:26;;;;;;;3.40;2.90;;;33.30;1.00;;;;;;8363795;28;20263;-65
2022/06/26 14:59:27;;;;;;;5.97;3.70;;;33.50;1.00;;;;;;8368350;28;20227;-68
2022/06/26 15:03:27;;;;;;;5.57;3.78;;;33.90;1.00;;;;;;8372791;28;20213;-69
2022/06/26 15:07:28;;;;;;;3.40;3.13;;;34.40;1.00;;;;;;8368656;28;20239;-62
2022/06/26 15:11:29;;;;;;;3.30;2.97;;;34.50;1.00;;;;;;8369449;28;20181;-62
2022/06/26 15:15:30;;;;;;;4.15;3.03;;;34.30;1.00;;;;;;8367215;28;20174;-65
2022/06/26 15:19:31;;;;;;;3.25;2.95;;;33.90;1.00;;;;;;8373321;28;20181;-64
2022/06/26 15:23:32;;;;;;;2.83;2.63;;;33.50;1.00;;;;;;8369312;28;20197;-66
2022/06/26 15:27:34;;;;;;;3.47;3.13;;;33.10;1.00;;;;;;8373728;28;20201;-67
2022/06/26 15:31:35;;;;;;;3.25;2.90;;;32.70;1.00;;;;;;8374172;28;20205;-67
2022/06/26 15:35:36;;;;;;;3.45;3.08;;;32.10;1.00;;;;;;8370106;28;20178;-63
2022/06/26 15:39:37;;;;;;;3.95;3.08;;;31.80;1.00;;;;;;8379333;28;20303;-65
2022/06/26 15:43:38;;;;;;;5.95;3.53;;;31.50;1.00;;;;;;8367176;28;20205;-67
2022/06/26 15:47:38;;;;;;;4.68;3.03;;;31.20;1.00;;;;;;8374788;28;20177;-68
2022/06/26 15:51:44;;;;;;;3.70;2.70;;;31.00;1.00;;;;;;8371303;28;20215;-65
2022/06/26 15:55:45;;;;;;;4.25;2.65;;;30.90;1.00;;;;;;8369162;28;20177;-66
2022/06/26 15:59:45;;;;;;;2.80;2.45;;;30.90;1.00;;;;;;8368361;28;20212;-67
2022/06/26 16:03:46;;;;;;;2.75;2.53;;;31.00;1.00;;;;;;8372075;28;20213;-67
2022/06/26 16:07:47;;;;;;;2.58;2.28;;;31.00;1.00;;;;;;8383297;28;20178;-65
2022/06/26 16:11:48;;;;;;;2.78;2.30;;;31.00;1.00;;;;;;8374255;28;20196;-65
2022/06/26 16:15:49;;;;;;;4.57;2.55;;;31.10;1.00;;;;;;8388884;28;20212;-66
2022/06/26 16:19:49;;;;;;;2.78;2.47;;;31.20;1.00;;;;;;8376804;28;20186;-69
2022/06/26 16:28:09;;;;;;;4.65;2.30;;;31.40;1.00;;;;;;8375941;28;20216;-66
2022/06/26 16:32:10;;;;;;;3.85;2.28;;;31.40;1.00;;;;;;8373308;28;20174;-66
2022/06/26 16:36:11;;;;;;;2.67;2.00;;;31.50;1.00;;;;;;8376080;28;20267;-66
2022/06/26 16:40:12;;;;;;;3.40;1.83;;;31.50;1.00;;;;;;8381894;28;20268;-66
2022/06/26 16:44:13;;;;;;;3.45;2.17;;;31.60;1.00;;;;;;8381223;28;20205;-68
2022/06/26 16:48:14;;;;;;;2.47;1.90;;;31.80;1.00;;;;;;8371415;28;20182;-69
2022/06/26 16:52:15;;;;;;;3.60;1.95;;;31.90;1.00;;;;;;8377068;28;20267;-70
2022/06/26 16:56:15;;;;;;;4.45;1.90;;;32.10;1.00;;;;;;8381514;28;21665;-67
2022/06/26 17:00:17;;;;;;;3.03;2.00;;;32.30;1.00;;;;;;8376730;28;20274;-65
2022/06/26 17:04:17;;;;;;;4.53;2.15;;;32.50;1.00;;;;;;8376969;28;20256;-67
2022/06/26 17:08:19;;;;;;;2.83;2.00;;;32.50;1.00;;;;;;8372893;28;20181;-67
2022/06/26 17:12:19;;;;;;;3.13;2.28;;;32.40;1.00;;;;;;8370890;28;20235;-68
2022/06/26 17:16:20;;;;;;;2.95;2.50;;;32.20;1.00;;;;;;8370220;28;20208;-70
2022/06/26 17:20:22;;;;;;;2.55;2.22;;;31.80;1.00;;;;;;8379679;28;20185;-67
2022/06/26 17:24:23;;;;;;;3.03;2.50;;;31.50;1.00;;;;;;8374273;28;20297;-66
2022/06/26 17:28:23;;;;;;;2.53;2.13;;;31.10;1.00;;;;;;8370518;28;20288;-65
2022/06/26 17:32:24;;;;;;;3.15;2.85;;;30.80;1.00;;;;;;8384375;28;20193;-67
2022/06/26 17:36:25;;;;;;;3.00;2.70;;;30.50;1.00;;;;;;8382378;28;20262;-66
2022/06/26 17:40:26;;;;;;;3.75;3.00;;;30.30;1.00;;;;;;8371433;28;20174;-66
2022/06/26 17:44:27;;;;;;;3.22;2.85;;;30.10;1.00;;;;;;8371896;28;20206;-67
2022/06/26 17:48:28;;;;;;;3.08;2.78;;;29.90;1.00;;;;;;8373244;28;20173;-66
2022/06/26 17:52:28;;;;;;;3.20;2.70;;;29.60;1.00;;;;;;8373145;28;20258;-66
2022/06/26 17:56:29;;;;;;;2.80;2.50;;;29.50;1.00;;;;;;8373070;28;20190;-65
2022/06/26 18:00:31;;;;;;;4.03;2.50;;;29.30;1.00;;;;;;8373211;28;20173;-65
2022/06/26 18:04:32;;;;;;;2.65;2.45;;;29.10;1.00;;;;;;8370763;28;20264;-66
2022/06/26 18:08:33;;;;;;;3.00;2.70;;;29.00;1.00;;;;;;8382452;28;20178;-67
2022/06/26 18:12:40;;;;;;;3.10;2.72;;;28.90;1.00;;;;;;8377448;28;20192;-66
2022/06/26 18:16:41;;;;;;;3.38;3.13;;;28.80;1.00;;;;;;8371972;28;20181;-65
2022/06/26 18:20:42;;;;;;;3.97;3.55;;;28.60;1.00;;;;;;8376110;28;20208;-67
2022/06/26 18:24:42;;;;;;;3.30;3.00;;;28.40;4.40;;;;;;8370269;28;20206;-65
2022/06/26 18:28:43;;;;;;;5.28;3.80;;;28.30;15.10;;;;;;8366188;28;20250;-66
2022/06/26 18:32:44;;;;;;;6.05;3.50;;;28.10;24.40;;;;;;8372490;28;20182;-66
2022/06/26 18:36:46;;;;;;;5.18;3.70;;;28.00;32.00;;;;;;8374057;28;20502;-67
2022/06/26 18:40:47;;;;;;;4.00;3.25;;;28.00;48.00;;;;;;8367828;28;20205;-66
2022/06/26 18:44:48;;;;;;;5.50;3.22;;;27.90;55.60;;;;;;8370015;28;20210;-66
2022/06/26 18:48:49;;;;;;;5.70;3.45;;;27.80;58.80;;;;;;8375537;28;20193;-65
2022/06/26 18:52:50;;;;;;;3.55;3.25;;;27.70;72.80;;;;;;8370385;28;20197;-67
2022/06/26 18:56:51;;;;;;;4.50;3.33;;;27.50;95.90;;;;;;8375416;28;20196;-66
2022/06/26 19:00:52;;;;;;;4.63;3.65;;;27.30;99.90;;;;;;8370865;28;20190;-66
2022/06/26 19:04:53;;;;;;;4.13;3.55;;;27.00;99.90;;;;;;8370510;28;20213;-66
2022/06/26 19:08:54;;;;;;;3.50;3.20;;;26.80;99.90;;;;;;8374701;28;20296;-66
2022/06/26 19:17:16;;;;;;;4.23;3.17;;;26.30;99.90;;;;;;8375676;28;20212;-65
2022/06/26 19:21:17;;;;;;;4.37;3.97;;;26.00;99.90;;;;;;8365111;28;20178;-66
2022/06/26 19:25:18;;;;;;;4.63;3.50;;;25.70;99.90;;;;;;8374045;28;20256;-65
2022/06/26 19:29:18;;;;;;;3.67;3.37;;;25.50;99.90;;;;;;8358785;28;20201;-65
2022/06/26 19:33:21;;;;;;;4.17;3.63;;;25.30;99.90;;;;;;8373659;28;20256;-68
2022/06/26 19:37:22;;;;;;;4.83;3.87;;;25.00;99.90;;;;;;8373073;28;20174;-67
2022/06/26 19:41:23;;;;;;;4.00;3.60;;;24.70;99.90;;;;;;8364662;28;20197;-68
2022/06/26 19:45:23;;;;;;;5.70;4.60;;;24.40;1.00;;;;;;8371070;28;20209;-67
2022/06/26 19:53:44;;;;;;;5.30;4.47;;;23.80;39.50;;;;;;8369839;28;20192;-66
2022/06/26 19:57:45;;;;;;;4.83;4.43;;;23.60;99.90;;;;;;8370639;28;20292;-66
2022/06/26 20:01:46;;;;;;;5.17;4.77;;;23.30;99.90;;;;;;8367247;28;20225;-66
2022/06/26 20:05:47;;;;;;;5.17;4.67;;;23.00;1.00;;;;;;8372568;28;20242;-66
2022/06/26 20:09:48;;;;;;;6.30;4.97;;;22.80;1.00;;;;;;8373919;28;20277;-66
2022/06/26 20:13:49;;;;;;;5.73;4.83;;;22.70;99.90;;;;;;8373405;28;20201;-66
2022/06/26 20:17:50;;;;;;;5.20;4.70;;;22.50;99.90;;;;;;8368442;28;20201;-67
2022/06/26 20:21:51;;;;;;;7.50;5.13;;;22.30;99.90;;;;;;8367761;28;20244;-65
2022/06/26 20:25:52;;;;;;;5.43;4.57;;;22.20;99.90;;;;;;8372275;28;20273;-67
2022/06/26 20:29:53;;;;;;;5.47;4.97;;;22.10;99.90;;;;;;8365537;28;20201;-69
2022/06/26 20:33:54;;;;;;;5.47;4.90;;;22.00;1.00;;;;;;8367795;28;20272;-66
2022/06/26 20:37:55;;;;;;;5.87;5.37;;;21.90;1.00;;;;;;8371710;28;20196;-67
2022/06/26 20:41:56;;;;;;;5.77;5.30;;;21.80;99.90;;;;;;8370656;28;20205;-69
2022/06/26 20:45:57;;;;;;;5.37;4.97;;;21.60;99.90;;;;;;8364179;28;20177;-68
2022/06/26 20:49:58;;;;;;;5.87;5.30;;;21.40;99.90;;;;;;8366208;28;20223;-68
2022/06/26 20:53:59;;;;;;;5.30;4.90;;;21.30;99.90;;;;;;8375247;28;20251;-68
2022/06/26 20:58:00;;;;;;;5.60;5.10;;;21.10;99.90;;;;;;8376274;28;20189;-69
2022/06/26 21:02:02;;;;;;;5.63;5.23;;;21.10;99.90;;;;;;8376068;28;20208;-68
2022/06/26 21:06:03;;;;;;;5.63;5.13;;;21.00;1.00;;;;;;8378965;28;20193;-69
2022/06/26 21:10:06;;;;;;;5.33;4.93;;;20.90;1.00;;;;;;8373740;28;20236;-66
2022/06/26 21:14:07;;;;;;;5.73;5.30;;;20.80;59.10;;;;;;8369317;28;20264;-65
2022/06/26 21:18:08;;;;;;;5.77;5.27;;;20.70;99.90;;;;;;8373210;28;20265;-65
2022/06/26 21:22:09;;;;;;;5.47;5.00;;;20.60;99.90;;;;;;8372100;28;20204;-67
2022/06/26 21:26:11;;;;;;;6.73;5.40;;;20.50;1.00;;;;;;8370124;28;20174;-67
2022/06/26 21:30:14;;;;;;;8.67;6.53;;;20.30;1.00;;;;;;8375578;28;20201;-68
2022/06/26 21:34:15;;;;;;;7.40;6.70;;;20.20;99.90;;;;;;8374059;28;20177;-68
2022/06/26 21:38:16;;;;;;;8.20;7.30;;;20.20;99.90;;;;;;8373271;28;20178;-69